sensor_id;sensor_type;location;lat;lon;timestamp;P1;durP1;ratioP1;P2;durP2;ratioP2
15183;SDS011;7693;49.266;7.104;2022-12-18T06:36:12;41.70;;;20.07;;
15183;SDS011;7693;49.266;7.104;2022-12-18T06:38:39;42.40;;;21.47;;
15183;SDS011;7693;49.266;7.104;2022-12-18T06:41:07;45.50;;;22.70;;
15183;SDS011;7693;49.266;7.104;2022-12-18T06:43:34;41.83;;;20.10;;
15183;SDS011;7693;49.266;7.104;2022-12-18T06:45:59;41.53;;;21.53;;
15183;SDS011;7693;49.266;7.104;2022-12-18T06:48:26;44.70;;;21.37;;
15183;SDS011;7693;49.266;7.104;2022-12-18T06:50:52;46.43;;;21.80;;
15183;SDS011;7693;49.266;7.104;2022-12-18T06:53:17;42.20;;;21.13;;
15183;SDS011;7693;49.266;7.104;2022-12-18T06:55:43;38.70;;;20.03;;
15183;SDS011;7693;49.266;7.104;2022-12-18T06:58:08;45.20;;;21.67;;
15183;SDS011;7693;49.266;7.104;2022-12-18T07:00:34;39.70;;;21.23;;
15183;SDS011;7693;49.266;7.104;2022-12-18T07:03:00;43.17;;;22.97;;
15183;SDS011;7693;49.266;7.104;2022-12-18T07:05:25;41.83;;;19.93;;
15183;SDS011;7693;49.266;7.104;2022-12-18T07:07:51;39.27;;;21.27;;
15183;SDS011;7693;49.266;7.104;2022-12-18T07:10:17;45.27;;;22.17;;
15183;SDS011;7693;49.266;7.104;2022-12-18T07:12:42;38.40;;;20.17;;
15183;SDS011;7693;49.266;7.104;2022-12-18T07:15:08;46.43;;;22.50;;
15183;SDS011;7693;49.266;7.104;2022-12-18T07:17:34;44.23;;;21.10;;
15183;SDS011;7693;49.266;7.104;2022-12-18T07:20:00;40.97;;;21.10;;
15183;SDS011;7693;49.266;7.104;2022-12-18T07:22:26;40.73;;;21.03;;
15183;SDS011;7693;49.266;7.104;2022-12-18T07:24:52;40.17;;;20.33;;
15183;SDS011;7693;49.266;7.104;2022-12-18T07:27:17;37.60;;;20.27;;
15183;SDS011;7693;49.266;7.104;2022-12-18T07:29:43;42.80;;;21.53;;
15183;SDS011;7693;49.266;7.104;2022-12-18T07:32:09;38.00;;;20.07;;
15183;SDS011;7693;49.266;7.104;2022-12-18T07:34:34;42.70;;;21.17;;
15183;SDS011;7693;49.266;7.104;2022-12-18T07:37:00;44.13;;;21.63;;
15183;SDS011;7693;49.266;7.104;2022-12-18T07:39:25;42.80;;;21.33;;
15183;SDS011;7693;49.266;7.104;2022-12-18T07:41:51;39.90;;;19.60;;
15183;SDS011;7693;49.266;7.104;2022-12-18T07:44:35;35.57;;;20.00;;
15183;SDS011;7693;49.266;7.104;2022-12-18T07:47:01;39.83;;;21.30;;
15183;SDS011;7693;49.266;7.104;2022-12-18T07:49:27;41.03;;;21.87;;
15183;SDS011;7693;49.266;7.104;2022-12-18T07:51:54;42.47;;;20.80;;
15183;SDS011;7693;49.266;7.104;2022-12-18T07:54:23;42.47;;;20.93;;
15183;SDS011;7693;49.266;7.104;2022-12-18T07:56:49;41.53;;;19.93;;
15183;SDS011;7693;49.266;7.104;2022-12-18T07:59:15;38.13;;;21.27;;
15183;SDS011;7693;49.266;7.104;2022-12-18T08:01:41;38.63;;;20.17;;
15183;SDS011;7693;49.266;7.104;2022-12-18T08:04:07;41.47;;;20.93;;
15183;SDS011;7693;49.266;7.104;2022-12-18T08:06:32;44.72;;;21.95;;
15183;SDS011;7693;49.266;7.104;2022-12-18T08:08:58;43.30;;;22.03;;
15183;SDS011;7693;49.266;7.104;2022-12-18T08:11:24;39.30;;;20.53;;
15183;SDS011;7693;49.266;7.104;2022-12-18T08:13:52;41.90;;;19.97;;
15183;SDS011;7693;49.266;7.104;2022-12-18T08:16:18;40.63;;;21.93;;
15183;SDS011;7693;49.266;7.104;2022-12-18T08:18:44;39.33;;;21.97;;
15183;SDS011;7693;49.266;7.104;2022-12-18T08:21:10;37.60;;;21.50;;
15183;SDS011;7693;49.266;7.104;2022-12-18T08:23:41;43.00;;;20.93;;
15183;SDS011;7693;49.266;7.104;2022-12-18T08:26:07;40.33;;;21.53;;
15183;SDS011;7693;49.266;7.104;2022-12-18T08:28:33;38.23;;;21.83;;
15183;SDS011;7693;49.266;7.104;2022-12-18T08:30:59;36.50;;;20.93;;
15183;SDS011;7693;49.266;7.104;2022-12-18T08:33:25;39.20;;;20.87;;
15183;SDS011;7693;49.266;7.104;2022-12-18T08:35:51;38.50;;;21.57;;
15183;SDS011;7693;49.266;7.104;2022-12-18T08:38:17;41.40;;;20.40;;
15183;SDS011;7693;49.266;7.104;2022-12-18T08:40:43;41.23;;;21.40;;
15183;SDS011;7693;49.266;7.104;2022-12-18T08:43:09;41.80;;;21.93;;
15183;SDS011;7693;49.266;7.104;2022-12-18T08:45:54;36.80;;;20.80;;
15183;SDS011;7693;49.266;7.104;2022-12-18T08:48:20;39.97;;;20.80;;
15183;SDS011;7693;49.266;7.104;2022-12-18T08:50:58;44.60;;;22.87;;
15183;SDS011;7693;49.266;7.104;2022-12-18T08:53:24;45.00;;;29.33;;
15183;SDS011;7693;49.266;7.104;2022-12-18T08:55:51;44.97;;;25.27;;
15183;SDS011;7693;49.266;7.104;2022-12-18T08:58:17;44.33;;;23.83;;
15183;SDS011;7693;49.266;7.104;2022-12-18T09:00:43;43.20;;;22.20;;
15183;SDS011;7693;49.266;7.104;2022-12-18T09:03:15;41.70;;;22.43;;
15183;SDS011;7693;49.266;7.104;2022-12-18T09:05:43;41.40;;;21.97;;
15183;SDS011;7693;49.266;7.104;2022-12-18T09:08:10;42.50;;;23.57;;
15183;SDS011;7693;49.266;7.104;2022-12-18T09:10:46;46.83;;;23.10;;
15183;SDS011;7693;49.266;7.104;2022-12-18T09:13:13;44.63;;;23.27;;
15183;SDS011;7693;49.266;7.104;2022-12-18T09:15:50;47.77;;;26.93;;
15183;SDS011;7693;49.266;7.104;2022-12-18T09:18:18;42.13;;;22.63;;
15183;SDS011;7693;49.266;7.104;2022-12-18T09:20:45;44.07;;;23.47;;
15183;SDS011;7693;49.266;7.104;2022-12-18T09:23:11;44.57;;;23.87;;
15183;SDS011;7693;49.266;7.104;2022-12-18T09:25:37;50.70;;;26.10;;
15183;SDS011;7693;49.266;7.104;2022-12-18T09:28:04;42.70;;;23.97;;
15183;SDS011;7693;49.266;7.104;2022-12-18T09:30:40;44.00;;;24.13;;
15183;SDS011;7693;49.266;7.104;2022-12-18T09:33:07;48.43;;;26.00;;
15183;SDS011;7693;49.266;7.104;2022-12-18T09:35:32;51.27;;;25.53;;
15183;SDS011;7693;49.266;7.104;2022-12-18T09:38:04;47.90;;;27.07;;
15183;SDS011;7693;49.266;7.104;2022-12-18T09:40:40;48.57;;;25.40;;
15183;SDS011;7693;49.266;7.104;2022-12-18T09:43:13;49.53;;;28.03;;
15183;SDS011;7693;49.266;7.104;2022-12-18T09:45:46;52.27;;;25.60;;
15183;SDS011;7693;49.266;7.104;2022-12-18T09:48:21;46.37;;;24.43;;
15183;SDS011;7693;49.266;7.104;2022-12-18T09:50:51;49.07;;;26.80;;
15183;SDS011;7693;49.266;7.104;2022-12-18T09:53:23;49.53;;;26.43;;
15183;SDS011;7693;49.266;7.104;2022-12-18T09:55:51;59.50;;;29.53;;
15183;SDS011;7693;49.266;7.104;2022-12-18T10:00:54;49.10;;;27.07;;
15183;SDS011;7693;49.266;7.104;2022-12-18T10:03:20;52.43;;;27.93;;
15183;SDS011;7693;49.266;7.104;2022-12-18T10:13:54;59.63;;;30.50;;
15183;SDS011;7693;49.266;7.104;2022-12-18T10:24:42;53.70;;;29.67;;
15183;SDS011;7693;49.266;7.104;2022-12-18T10:27:22;54.63;;;29.23;;
15183;SDS011;7693;49.266;7.104;2022-12-18T10:29:50;52.07;;;28.17;;
15183;SDS011;7693;49.266;7.104;2022-12-18T10:32:17;58.37;;;29.77;;
15183;SDS011;7693;49.266;7.104;2022-12-18T10:34:48;57.37;;;28.83;;
15183;SDS011;7693;49.266;7.104;2022-12-18T10:37:16;56.07;;;28.33;;
15183;SDS011;7693;49.266;7.104;2022-12-18T10:39:44;53.83;;;28.07;;
15183;SDS011;7693;49.266;7.104;2022-12-18T10:42:13;56.70;;;29.73;;
15183;SDS011;7693;49.266;7.104;2022-12-18T10:44:43;53.17;;;27.97;;
15183;SDS011;7693;49.266;7.104;2022-12-18T10:47:14;56.47;;;30.03;;
15183;SDS011;7693;49.266;7.104;2022-12-18T10:49:49;58.67;;;29.50;;
15183;SDS011;7693;49.266;7.104;2022-12-18T10:52:18;56.63;;;29.10;;
15183;SDS011;7693;49.266;7.104;2022-12-18T10:54:49;63.90;;;29.63;;
15183;SDS011;7693;49.266;7.104;2022-12-18T10:57:37;54.47;;;29.07;;
15183;SDS011;7693;49.266;7.104;2022-12-18T11:03:28;50.77;;;27.97;;
15183;SDS011;7693;49.266;7.104;2022-12-18T11:06:04;59.93;;;30.17;;
15183;SDS011;7693;49.266;7.104;2022-12-18T11:08:38;55.90;;;30.00;;
15183;SDS011;7693;49.266;7.104;2022-12-18T11:11:07;57.47;;;29.83;;
15183;SDS011;7693;49.266;7.104;2022-12-18T11:13:52;54.10;;;29.50;;
15183;SDS011;7693;49.266;7.104;2022-12-18T11:16:26;53.37;;;27.80;;
15183;SDS011;7693;49.266;7.104;2022-12-18T11:18:55;56.10;;;30.03;;
15183;SDS011;7693;49.266;7.104;2022-12-18T11:21:40;54.50;;;29.83;;
15183;SDS011;7693;49.266;7.104;2022-12-18T11:24:07;49.30;;;27.90;;
15183;SDS011;7693;49.266;7.104;2022-12-18T11:26:46;52.83;;;29.50;;
15183;SDS011;7693;49.266;7.104;2022-12-18T11:29:16;53.73;;;30.00;;
15183;SDS011;7693;49.266;7.104;2022-12-18T11:31:43;51.50;;;27.73;;
15183;SDS011;7693;49.266;7.104;2022-12-18T11:34:26;53.50;;;29.43;;
15183;SDS011;7693;49.266;7.104;2022-12-18T11:36:55;51.57;;;27.97;;
15183;SDS011;7693;49.266;7.104;2022-12-18T11:39:30;50.03;;;28.63;;
15183;SDS011;7693;49.266;7.104;2022-12-18T11:42:20;50.87;;;28.50;;
15183;SDS011;7693;49.266;7.104;2022-12-18T11:47:45;63.33;;;32.53;;
15183;SDS011;7693;49.266;7.104;2022-12-18T11:50:19;51.87;;;28.70;;
15183;SDS011;7693;49.266;7.104;2022-12-18T11:52:48;54.43;;;29.93;;
15183;SDS011;7693;49.266;7.104;2022-12-18T11:55:15;57.37;;;31.87;;
15183;SDS011;7693;49.266;7.104;2022-12-18T11:58:04;60.43;;;32.37;;
15183;SDS011;7693;49.266;7.104;2022-12-18T12:00:30;51.80;;;29.70;;
15183;SDS011;7693;49.266;7.104;2022-12-18T12:05:40;61.53;;;32.37;;
15183;SDS011;7693;49.266;7.104;2022-12-18T15:22:28;54.83;;;29.93;;
15183;SDS011;7693;49.266;7.104;2022-12-18T15:24:58;57.57;;;30.87;;
15183;SDS011;7693;49.266;7.104;2022-12-18T15:27:25;59.03;;;32.27;;
15183;SDS011;7693;49.266;7.104;2022-12-18T15:32:35;58.07;;;31.00;;
15183;SDS011;7693;49.266;7.104;2022-12-18T15:35:23;53.13;;;29.50;;
15183;SDS011;7693;49.266;7.104;2022-12-18T15:37:49;56.73;;;31.50;;
15183;SDS011;7693;49.266;7.104;2022-12-18T15:40:20;57.03;;;30.27;;
15183;SDS011;7693;49.266;7.104;2022-12-18T15:42:50;53.80;;;29.47;;
15183;SDS011;7693;49.266;7.104;2022-12-18T15:45:37;52.27;;;29.07;;
15183;SDS011;7693;49.266;7.104;2022-12-18T15:48:06;57.10;;;30.37;;
15183;SDS011;7693;49.266;7.104;2022-12-18T15:50:46;57.50;;;31.27;;
15183;SDS011;7693;49.266;7.104;2022-12-18T15:53:12;62.33;;;31.73;;
15183;SDS011;7693;49.266;7.104;2022-12-18T15:55:37;54.97;;;28.13;;
15183;SDS011;7693;49.266;7.104;2022-12-18T15:58:21;53.70;;;29.63;;
15183;SDS011;7693;49.266;7.104;2022-12-18T16:00:47;57.23;;;29.47;;
15183;SDS011;7693;49.266;7.104;2022-12-18T16:03:12;50.80;;;26.83;;
15183;SDS011;7693;49.266;7.104;2022-12-18T16:05:38;53.87;;;28.33;;
15183;SDS011;7693;49.266;7.104;2022-12-18T16:08:04;56.00;;;30.17;;
15183;SDS011;7693;49.266;7.104;2022-12-18T16:10:29;54.27;;;28.37;;
15183;SDS011;7693;49.266;7.104;2022-12-18T16:12:55;54.70;;;29.10;;
15183;SDS011;7693;49.266;7.104;2022-12-18T16:15:21;53.60;;;27.97;;
15183;SDS011;7693;49.266;7.104;2022-12-18T16:17:46;53.40;;;27.23;;
15183;SDS011;7693;49.266;7.104;2022-12-18T16:20:13;50.50;;;28.20;;
15183;SDS011;7693;49.266;7.104;2022-12-18T16:22:41;53.00;;;28.77;;
15183;SDS011;7693;49.266;7.104;2022-12-18T16:25:15;56.07;;;29.70;;
15183;SDS011;7693;49.266;7.104;2022-12-18T16:27:46;50.13;;;27.27;;
15183;SDS011;7693;49.266;7.104;2022-12-18T16:30:12;56.40;;;29.07;;
15183;SDS011;7693;49.266;7.104;2022-12-18T16:32:39;49.30;;;27.70;;
15183;SDS011;7693;49.266;7.104;2022-12-18T16:35:04;58.00;;;29.73;;
15183;SDS011;7693;49.266;7.104;2022-12-18T16:37:30;52.67;;;28.00;;
15183;SDS011;7693;49.266;7.104;2022-12-18T16:39:56;49.73;;;26.53;;
15183;SDS011;7693;49.266;7.104;2022-12-18T16:42:21;49.07;;;27.13;;
15183;SDS011;7693;49.266;7.104;2022-12-18T16:44:47;52.57;;;28.30;;
15183;SDS011;7693;49.266;7.104;2022-12-18T16:47:14;53.90;;;27.73;;
15183;SDS011;7693;49.266;7.104;2022-12-18T16:49:39;50.77;;;28.27;;
15183;SDS011;7693;49.266;7.104;2022-12-18T16:52:05;55.17;;;27.30;;
15183;SDS011;7693;49.266;7.104;2022-12-18T16:54:32;46.83;;;26.27;;
15183;SDS011;7693;49.266;7.104;2022-12-18T16:56:59;52.00;;;28.20;;
15183;SDS011;7693;49.266;7.104;2022-12-18T16:59:25;49.60;;;27.63;;
15183;SDS011;7693;49.266;7.104;2022-12-18T17:01:51;56.50;;;29.13;;
15183;SDS011;7693;49.266;7.104;2022-12-18T17:04:17;50.50;;;27.10;;
15183;SDS011;7693;49.266;7.104;2022-12-18T17:06:44;52.87;;;26.67;;
15183;SDS011;7693;49.266;7.104;2022-12-18T17:09:15;51.57;;;26.70;;
15183;SDS011;7693;49.266;7.104;2022-12-18T17:11:42;53.00;;;27.63;;
15183;SDS011;7693;49.266;7.104;2022-12-18T17:14:08;49.67;;;26.43;;
15183;SDS011;7693;49.266;7.104;2022-12-18T17:16:39;51.63;;;26.73;;
15183;SDS011;7693;49.266;7.104;2022-12-18T17:19:04;50.93;;;27.10;;
15183;SDS011;7693;49.266;7.104;2022-12-18T17:21:30;48.30;;;28.37;;
15183;SDS011;7693;49.266;7.104;2022-12-18T17:23:58;50.13;;;26.83;;
15183;SDS011;7693;49.266;7.104;2022-12-18T17:26:24;53.50;;;28.83;;
15183;SDS011;7693;49.266;7.104;2022-12-18T17:28:50;52.30;;;29.63;;
15183;SDS011;7693;49.266;7.104;2022-12-18T17:31:17;49.80;;;26.63;;
15183;SDS011;7693;49.266;7.104;2022-12-18T17:33:46;50.07;;;28.17;;
15183;SDS011;7693;49.266;7.104;2022-12-18T17:36:12;49.60;;;27.00;;
15183;SDS011;7693;49.266;7.104;2022-12-18T17:38:39;53.17;;;28.23;;
15183;SDS011;7693;49.266;7.104;2022-12-18T17:41:09;55.93;;;31.97;;
15183;SDS011;7693;49.266;7.104;2022-12-18T17:43:35;54.33;;;29.33;;
15183;SDS011;7693;49.266;7.104;2022-12-18T17:46:06;45.97;;;26.23;;
15183;SDS011;7693;49.266;7.104;2022-12-18T17:48:34;46.10;;;26.10;;
15183;SDS011;7693;49.266;7.104;2022-12-18T17:51:00;48.20;;;28.43;;
15183;SDS011;7693;49.266;7.104;2022-12-18T17:53:27;45.77;;;27.77;;
15183;SDS011;7693;49.266;7.104;2022-12-18T17:55:56;55.50;;;28.97;;
15183;SDS011;7693;49.266;7.104;2022-12-18T17:58:24;52.63;;;29.13;;
15183;SDS011;7693;49.266;7.104;2022-12-18T18:00:50;45.03;;;25.50;;
15183;SDS011;7693;49.266;7.104;2022-12-18T18:03:16;52.93;;;29.30;;
15183;SDS011;7693;49.266;7.104;2022-12-18T18:05:41;52.07;;;29.73;;
15183;SDS011;7693;49.266;7.104;2022-12-18T18:08:07;55.30;;;29.27;;
15183;SDS011;7693;49.266;7.104;2022-12-18T18:10:36;54.17;;;28.53;;
15183;SDS011;7693;49.266;7.104;2022-12-18T18:13:06;49.63;;;27.30;;
15183;SDS011;7693;49.266;7.104;2022-12-18T18:16:00;43.87;;;25.77;;
15183;SDS011;7693;49.266;7.104;2022-12-18T18:18:27;48.57;;;28.30;;
15183;SDS011;7693;49.266;7.104;2022-12-18T18:20:53;48.50;;;27.17;;
15183;SDS011;7693;49.266;7.104;2022-12-18T18:23:19;49.50;;;28.23;;
15183;SDS011;7693;49.266;7.104;2022-12-18T18:25:45;47.83;;;27.07;;
15183;SDS011;7693;49.266;7.104;2022-12-18T18:28:10;48.37;;;27.73;;
15183;SDS011;7693;49.266;7.104;2022-12-18T18:30:36;49.47;;;29.63;;
15183;SDS011;7693;49.266;7.104;2022-12-18T18:33:02;46.97;;;28.93;;
15183;SDS011;7693;49.266;7.104;2022-12-18T18:35:27;49.10;;;28.63;;
15183;SDS011;7693;49.266;7.104;2022-12-18T18:37:53;48.87;;;30.23;;
15183;SDS011;7693;49.266;7.104;2022-12-18T18:40:18;49.20;;;28.80;;
15183;SDS011;7693;49.266;7.104;2022-12-18T18:42:45;49.97;;;28.83;;
15183;SDS011;7693;49.266;7.104;2022-12-18T18:45:11;48.70;;;27.87;;
15183;SDS011;7693;49.266;7.104;2022-12-18T18:47:37;51.20;;;30.40;;
15183;SDS011;7693;49.266;7.104;2022-12-18T18:50:03;44.33;;;26.80;;
15183;SDS011;7693;49.266;7.104;2022-12-18T18:52:29;49.20;;;28.07;;
15183;SDS011;7693;49.266;7.104;2022-12-18T18:54:54;43.00;;;27.23;;
15183;SDS011;7693;49.266;7.104;2022-12-18T18:57:20;46.43;;;28.57;;
15183;SDS011;7693;49.266;7.104;2022-12-18T18:59:46;48.00;;;29.20;;
15183;SDS011;7693;49.266;7.104;2022-12-18T19:02:12;47.20;;;27.73;;
15183;SDS011;7693;49.266;7.104;2022-12-18T19:04:38;47.30;;;28.47;;
15183;SDS011;7693;49.266;7.104;2022-12-18T19:07:04;47.10;;;27.47;;
15183;SDS011;7693;49.266;7.104;2022-12-18T19:09:30;49.30;;;29.17;;
15183;SDS011;7693;49.266;7.104;2022-12-18T19:11:56;45.10;;;28.60;;
15183;SDS011;7693;49.266;7.104;2022-12-18T19:14:41;49.00;;;29.57;;
15183;SDS011;7693;49.266;7.104;2022-12-18T19:17:07;53.43;;;30.33;;
15183;SDS011;7693;49.266;7.104;2022-12-18T19:19:32;52.63;;;29.10;;
15183;SDS011;7693;49.266;7.104;2022-12-18T19:21:58;48.17;;;28.03;;
15183;SDS011;7693;49.266;7.104;2022-12-18T19:24:23;50.93;;;29.53;;
15183;SDS011;7693;49.266;7.104;2022-12-18T19:26:49;55.33;;;32.63;;
15183;SDS011;7693;49.266;7.104;2022-12-18T19:29:16;51.13;;;29.43;;
15183;SDS011;7693;49.266;7.104;2022-12-18T19:31:41;54.40;;;31.57;;
15183;SDS011;7693;49.266;7.104;2022-12-18T19:34:07;51.00;;;30.00;;
15183;SDS011;7693;49.266;7.104;2022-12-18T19:36:34;48.17;;;28.33;;
15183;SDS011;7693;49.266;7.104;2022-12-18T19:39:06;51.13;;;30.13;;
15183;SDS011;7693;49.266;7.104;2022-12-18T19:41:39;50.17;;;28.70;;
15183;SDS011;7693;49.266;7.104;2022-12-18T19:44:05;51.97;;;29.47;;
15183;SDS011;7693;49.266;7.104;2022-12-18T19:46:31;49.00;;;28.50;;
15183;SDS011;7693;49.266;7.104;2022-12-18T19:49:00;48.47;;;29.67;;
15183;SDS011;7693;49.266;7.104;2022-12-18T19:51:26;51.20;;;30.57;;
15183;SDS011;7693;49.266;7.104;2022-12-18T19:53:53;48.97;;;29.73;;
15183;SDS011;7693;49.266;7.104;2022-12-18T19:56:20;50.23;;;29.77;;
15183;SDS011;7693;49.266;7.104;2022-12-18T19:58:47;47.93;;;28.23;;
15183;SDS011;7693;49.266;7.104;2022-12-18T20:01:13;44.93;;;27.87;;
15183;SDS011;7693;49.266;7.104;2022-12-18T20:03:40;46.33;;;27.77;;
15183;SDS011;7693;49.266;7.104;2022-12-18T20:08:50;47.00;;;27.33;;
15183;SDS011;7693;49.266;7.104;2022-12-18T20:11:16;44.40;;;27.17;;
15183;SDS011;7693;49.266;7.104;2022-12-18T20:13:42;48.80;;;29.53;;
15183;SDS011;7693;49.266;7.104;2022-12-18T20:16:08;49.40;;;30.10;;
15183;SDS011;7693;49.266;7.104;2022-12-18T20:18:34;50.03;;;30.43;;
15183;SDS011;7693;49.266;7.104;2022-12-18T20:21:00;48.93;;;28.53;;
15183;SDS011;7693;49.266;7.104;2022-12-18T20:23:26;49.43;;;30.00;;
15183;SDS011;7693;49.266;7.104;2022-12-18T20:25:52;49.77;;;31.23;;
15183;SDS011;7693;49.266;7.104;2022-12-18T20:28:19;48.63;;;29.97;;
15183;SDS011;7693;49.266;7.104;2022-12-18T20:30:46;55.17;;;32.40;;
15183;SDS011;7693;49.266;7.104;2022-12-18T20:33:12;58.73;;;33.07;;
15183;SDS011;7693;49.266;7.104;2022-12-18T20:35:37;48.93;;;30.27;;
15183;SDS011;7693;49.266;7.104;2022-12-18T20:38:03;45.13;;;27.90;;
15183;SDS011;7693;49.266;7.104;2022-12-18T20:40:29;53.03;;;30.30;;
15183;SDS011;7693;49.266;7.104;2022-12-18T20:42:54;52.03;;;30.83;;
15183;SDS011;7693;49.266;7.104;2022-12-18T20:45:20;46.70;;;27.50;;
15183;SDS011;7693;49.266;7.104;2022-12-18T20:47:45;52.53;;;30.73;;
15183;SDS011;7693;49.266;7.104;2022-12-18T20:50:11;49.80;;;29.83;;
15183;SDS011;7693;49.266;7.104;2022-12-18T20:52:36;47.50;;;28.97;;
15183;SDS011;7693;49.266;7.104;2022-12-18T20:55:03;50.80;;;30.00;;
15183;SDS011;7693;49.266;7.104;2022-12-18T20:57:30;46.83;;;27.83;;
15183;SDS011;7693;49.266;7.104;2022-12-18T20:59:55;53.13;;;30.93;;
15183;SDS011;7693;49.266;7.104;2022-12-18T21:02:21;49.10;;;30.27;;
15183;SDS011;7693;49.266;7.104;2022-12-18T21:04:47;55.23;;;31.03;;
15183;SDS011;7693;49.266;7.104;2022-12-18T21:07:13;52.23;;;29.60;;
15183;SDS011;7693;49.266;7.104;2022-12-18T21:09:38;47.90;;;28.93;;
15183;SDS011;7693;49.266;7.104;2022-12-18T21:12:05;47.63;;;28.73;;
15183;SDS011;7693;49.266;7.104;2022-12-18T21:14:57;42.60;;;27.27;;
15183;SDS011;7693;49.266;7.104;2022-12-18T21:17:23;52.33;;;29.67;;
15183;SDS011;7693;49.266;7.104;2022-12-18T21:19:50;47.57;;;28.03;;
15183;SDS011;7693;49.266;7.104;2022-12-18T21:22:16;49.10;;;28.57;;
15183;SDS011;7693;49.266;7.104;2022-12-18T21:24:41;46.80;;;27.87;;
15183;SDS011;7693;49.266;7.104;2022-12-18T21:27:07;50.17;;;29.10;;
15183;SDS011;7693;49.266;7.104;2022-12-18T21:29:33;44.40;;;27.10;;
15183;SDS011;7693;49.266;7.104;2022-12-18T21:31:59;47.60;;;28.60;;
15183;SDS011;7693;49.266;7.104;2022-12-18T21:34:28;48.37;;;29.33;;
15183;SDS011;7693;49.266;7.104;2022-12-18T21:36:55;50.07;;;28.30;;
15183;SDS011;7693;49.266;7.104;2022-12-18T21:39:22;47.33;;;28.00;;
15183;SDS011;7693;49.266;7.104;2022-12-18T21:41:48;48.83;;;28.03;;
15183;SDS011;7693;49.266;7.104;2022-12-18T21:44:33;44.77;;;27.80;;
15183;SDS011;7693;49.266;7.104;2022-12-18T21:46:58;46.67;;;27.63;;
15183;SDS011;7693;49.266;7.104;2022-12-18T21:49:24;47.17;;;27.87;;
15183;SDS011;7693;49.266;7.104;2022-12-18T21:51:51;46.90;;;26.70;;
15183;SDS011;7693;49.266;7.104;2022-12-18T21:54:19;47.63;;;27.90;;
15183;SDS011;7693;49.266;7.104;2022-12-18T21:59:17;49.60;;;28.50;;
15183;SDS011;7693;49.266;7.104;2022-12-18T22:02:11;45.97;;;28.20;;
15183;SDS011;7693;49.266;7.104;2022-12-18T22:04:39;46.23;;;26.77;;
15183;SDS011;7693;49.266;7.104;2022-12-18T22:07:05;47.83;;;28.97;;
15183;SDS011;7693;49.266;7.104;2022-12-18T22:09:31;43.40;;;27.00;;
15183;SDS011;7693;49.266;7.104;2022-12-18T22:11:57;47.13;;;28.23;;
15183;SDS011;7693;49.266;7.104;2022-12-18T22:14:23;44.03;;;28.33;;
15183;SDS011;7693;49.266;7.104;2022-12-18T22:16:49;46.03;;;27.87;;
15183;SDS011;7693;49.266;7.104;2022-12-18T22:19:15;44.90;;;27.03;;
15183;SDS011;7693;49.266;7.104;2022-12-18T22:21:42;46.53;;;28.37;;
15183;SDS011;7693;49.266;7.104;2022-12-18T22:24:12;44.07;;;26.67;;
15183;SDS011;7693;49.266;7.104;2022-12-18T22:26:45;46.43;;;28.10;;
15183;SDS011;7693;49.266;7.104;2022-12-18T22:29:12;48.77;;;28.43;;
15183;SDS011;7693;49.266;7.104;2022-12-18T22:31:57;44.23;;;27.20;;
15183;SDS011;7693;49.266;7.104;2022-12-18T22:34:23;49.80;;;29.60;;
15183;SDS011;7693;49.266;7.104;2022-12-18T22:36:48;48.40;;;28.73;;
15183;SDS011;7693;49.266;7.104;2022-12-18T22:39:15;50.13;;;28.17;;
15183;SDS011;7693;49.266;7.104;2022-12-18T22:41:46;47.33;;;27.70;;
15183;SDS011;7693;49.266;7.104;2022-12-18T22:44:12;49.20;;;29.90;;
15183;SDS011;7693;49.266;7.104;2022-12-18T22:46:39;49.57;;;29.87;;
15183;SDS011;7693;49.266;7.104;2022-12-18T22:49:11;46.30;;;27.17;;
15183;SDS011;7693;49.266;7.104;2022-12-18T22:51:38;47.57;;;29.30;;
15183;SDS011;7693;49.266;7.104;2022-12-18T22:54:03;46.10;;;28.40;;
15183;SDS011;7693;49.266;7.104;2022-12-18T22:56:29;45.33;;;28.40;;
15183;SDS011;7693;49.266;7.104;2022-12-18T22:58:54;44.30;;;27.50;;
15183;SDS011;7693;49.266;7.104;2022-12-18T23:01:21;46.27;;;28.50;;
15183;SDS011;7693;49.266;7.104;2022-12-18T23:03:48;50.20;;;29.60;;
15183;SDS011;7693;49.266;7.104;2022-12-18T23:06:15;52.73;;;29.60;;
15183;SDS011;7693;49.266;7.104;2022-12-18T23:08:41;56.03;;;31.50;;
15183;SDS011;7693;49.266;7.104;2022-12-18T23:11:07;63.90;;;34.00;;
15183;SDS011;7693;49.266;7.104;2022-12-18T23:13:33;53.03;;;32.27;;
15183;SDS011;7693;49.266;7.104;2022-12-18T23:15:59;52.77;;;31.33;;
15183;SDS011;7693;49.266;7.104;2022-12-18T23:18:29;59.83;;;33.87;;
15183;SDS011;7693;49.266;7.104;2022-12-18T23:20:54;53.57;;;31.23;;
15183;SDS011;7693;49.266;7.104;2022-12-18T23:23:20;60.63;;;33.67;;
15183;SDS011;7693;49.266;7.104;2022-12-18T23:25:45;48.90;;;29.27;;
15183;SDS011;7693;49.266;7.104;2022-12-18T23:28:11;49.13;;;27.87;;
15183;SDS011;7693;49.266;7.104;2022-12-18T23:30:37;55.13;;;31.43;;
15183;SDS011;7693;49.266;7.104;2022-12-18T23:33:02;50.60;;;30.50;;
15183;SDS011;7693;49.266;7.104;2022-12-18T23:35:28;52.80;;;30.37;;
15183;SDS011;7693;49.266;7.104;2022-12-18T23:37:54;49.13;;;29.07;;
15183;SDS011;7693;49.266;7.104;2022-12-18T23:40:20;53.10;;;29.93;;
15183;SDS011;7693;49.266;7.104;2022-12-18T23:42:45;48.33;;;29.20;;
15183;SDS011;7693;49.266;7.104;2022-12-18T23:45:11;50.27;;;29.90;;
15183;SDS011;7693;49.266;7.104;2022-12-18T23:47:36;55.67;;;30.40;;
15183;SDS011;7693;49.266;7.104;2022-12-18T23:50:02;53.13;;;31.50;;
15183;SDS011;7693;49.266;7.104;2022-12-18T23:52:28;47.87;;;28.53;;
15183;SDS011;7693;49.266;7.104;2022-12-18T23:54:53;51.87;;;30.67;;
15183;SDS011;7693;49.266;7.104;2022-12-18T23:57:20;56.23;;;32.17;;
15183;SDS011;7693;49.266;7.104;2022-12-18T23:59:45;47.50;;;29.53;;
